createdAt,value
2022-10-22T00:02:19.888Z,95106.59
2022-10-22T00:04:48.076Z,95102.09
2022-10-22T00:07:15.376Z,95107.47
2022-10-22T00:09:41.972Z,95113.19
2022-10-22T00:12:08.546Z,95129.44
2022-10-22T00:14:35.841Z,95121.16
2022-10-22T00:17:02.345Z,95122.84
2022-10-22T00:19:28.940Z,95135.63
2022-10-22T00:21:55.794Z,95135.22
2022-10-22T00:24:22.311Z,95142.03
2022-10-22T00:26:48.823Z,95151.47
2022-10-22T00:29:15.382Z,95151.47
2022-10-22T00:31:41.948Z,95145.44
2022-10-22T00:34:08.443Z,95131.75
2022-10-22T00:36:35.361Z,95141.88
2022-10-22T00:39:01.889Z,95142.25
2022-10-22T00:41:28.481Z,95149.81
2022-10-22T00:44:01.158Z,95146.88
2022-10-22T00:46:28.385Z,95145.38
2022-10-22T00:48:58.151Z,95146.09
2022-10-22T00:51:28.988Z,95145.03
2022-10-22T00:54:01.862Z,95127.09
2022-10-22T00:56:28.543Z,95132.31
2022-10-22T00:59:00.815Z,95143.72
2022-10-22T01:01:30.640Z,95151.81
2022-10-22T01:03:57.372Z,95152.59
2022-10-22T01:06:26.757Z,95143.44
2022-10-22T01:09:02.676Z,95155.47
2022-10-22T01:11:43.805Z,95143.50
2022-10-22T01:14:22.442Z,95145.00
2022-10-22T01:17:04.967Z,95127.66
2022-10-22T01:19:50.292Z,95138.78
2022-10-22T01:22:32.258Z,95127.81
2022-10-22T01:25:09.087Z,95135.06
2022-10-22T01:27:54.831Z,95127.59
2022-10-22T01:30:22.325Z,95122.72
2022-10-22T01:32:55.874Z,95130.63
2022-10-22T01:35:27.792Z,95139.69
2022-10-22T01:37:57.754Z,95145.66
2022-10-22T01:40:26.244Z,95148.63
2022-10-22T01:43:01.384Z,95149.81
2022-10-22T01:45:33.060Z,95150.19
2022-10-22T01:48:22.394Z,95166.09
2022-10-22T01:51:21.213Z,95149.38
2022-10-22T01:54:08.803Z,95159.91
2022-10-22T01:56:53.514Z,95164.44
2022-10-22T01:59:44.817Z,95158.84
2022-10-22T02:02:17.161Z,95151.97
2022-10-22T02:04:59.021Z,95160.69
2022-10-22T02:07:30.044Z,95150.88
2022-10-22T02:09:58.397Z,95138.84
2022-10-22T02:12:28.121Z,95145.44
2022-10-22T02:14:57.372Z,95147.75
2022-10-22T02:17:26.278Z,95144.06
2022-10-22T02:20:10.097Z,95149.72
2022-10-22T02:22:37.495Z,95150.75
2022-10-22T02:25:06.364Z,95149.97
2022-10-22T02:27:47.747Z,95156.84
2022-10-22T02:32:56.686Z,95153.78
2022-10-22T02:35:25.929Z,95146.97
2022-10-22T02:37:55.154Z,95134.84
2022-10-22T02:40:22.522Z,95144.53
2022-10-22T02:42:51.031Z,95139.38
2022-10-22T02:45:19.225Z,95147.69
2022-10-22T02:47:46.638Z,95153.78
2022-10-22T02:50:13.317Z,95145.44
2022-10-22T02:52:40.285Z,95138.63
2022-10-22T02:55:08.033Z,95153.78
2022-10-22T02:57:34.710Z,95138.63
2022-10-22T03:00:01.233Z,95134.97
2022-10-22T03:02:27.959Z,95131.50
2022-10-22T03:04:54.470Z,95148.41
2022-10-22T03:07:20.990Z,95148.09
2022-10-22T03:09:47.658Z,95156.06
2022-10-22T03:12:14.186Z,95154.47
2022-10-22T03:14:40.710Z,95159.09
2022-10-22T03:17:07.414Z,95166.66
2022-10-22T03:19:33.960Z,95155.16
2022-10-22T03:22:14.335Z,95163.59
2022-10-22T03:24:44.718Z,95168.91
2022-10-22T03:27:14.778Z,95172.56
2022-10-22T03:29:42.298Z,95169.19
2022-10-22T03:32:08.961Z,95168.13
2022-10-22T03:34:35.825Z,95178.00
2022-10-22T03:37:02.743Z,95171.19
2022-10-22T03:39:31.766Z,95167.41
2022-10-22T03:41:58.614Z,95167.03
2022-10-22T03:44:25.938Z,95165.53
2022-10-22T03:46:52.433Z,95164.50
2022-10-22T03:49:19.032Z,95158.63
2022-10-22T03:51:45.571Z,95174.53
2022-10-22T03:54:12.111Z,95176.13
2022-10-22T03:56:38.732Z,95173.38
2022-10-22T03:59:05.324Z,95176.03
2022-10-22T04:01:32.135Z,95182.13
2022-10-22T04:03:58.791Z,95192.38
2022-10-22T04:06:25.607Z,95199.53
2022-10-22T04:08:52.446Z,95204.00
2022-10-22T04:11:19.053Z,95209.63
2022-10-22T04:13:45.599Z,95199.47
2022-10-22T04:16:12.237Z,95206.09
2022-10-22T04:18:39.860Z,95207.72
2022-10-22T04:21:08.351Z,95209.97
2022-10-22T04:23:34.854Z,95211.53
2022-10-22T04:26:05.600Z,95214.53
2022-10-22T04:28:32.451Z,95219.03
2022-10-22T04:30:58.958Z,95219.03
2022-10-22T04:33:25.717Z,95227.81
2022-10-22T04:35:52.243Z,95229.25
2022-10-22T04:38:18.806Z,95231.88
2022-10-22T04:40:45.506Z,95241.00
2022-10-22T04:43:12.080Z,95234.91
2022-10-22T04:45:38.574Z,95235.69
2022-10-22T04:48:05.486Z,95246.81
2022-10-22T04:50:32.042Z,95229.81
2022-10-22T04:52:58.561Z,95243.13
2022-10-22T04:55:25.208Z,95253.47
2022-10-22T04:57:51.831Z,95239.88
2022-10-22T05:00:18.384Z,95228.84
2022-10-22T05:02:49.253Z,95234.94
2022-10-22T05:05:15.958Z,95249.88
2022-10-22T05:07:42.670Z,95236.63
2022-10-22T05:10:10.144Z,95241.16
2022-10-22T05:12:36.737Z,95246.88
2022-10-22T05:15:03.535Z,95252.16
2022-10-22T05:17:30.222Z,95254.34
2022-10-22T05:19:56.746Z,95255.84
2022-10-22T05:22:23.248Z,95251.03
2022-10-22T05:24:49.786Z,95242.34
2022-10-22T05:27:16.429Z,95243.72
2022-10-22T05:29:42.977Z,95252.84
2022-10-22T05:32:10.011Z,95255.19
2022-10-22T05:34:36.800Z,95254.34
2022-10-22T05:37:03.906Z,95258.13
2022-10-22T05:39:30.474Z,95258.25
2022-10-22T05:41:56.993Z,95258.25
2022-10-22T05:44:23.486Z,95276.47
2022-10-22T05:46:50.165Z,95266.66
2022-10-22T05:49:16.673Z,95281.03
2022-10-22T05:51:43.219Z,95268.16
2022-10-22T05:54:17.424Z,95277.25
2022-10-22T05:56:44.046Z,95287.16
2022-10-22T05:59:11.563Z,95282.59
2022-10-22T06:01:39.615Z,95279.22
2022-10-22T06:04:10.115Z,95295.00
2022-10-22T06:06:52.954Z,95299.16
2022-10-22T06:09:29.125Z,95299.06
2022-10-22T06:11:56.739Z,95299.88
2022-10-22T06:14:24.526Z,95302.78
2022-10-22T06:16:51.367Z,95303.59
2022-10-22T06:19:20.603Z,95310.69
2022-10-22T06:21:48.015Z,95308.00
2022-10-22T06:24:14.789Z,95306.41
2022-10-22T06:26:42.012Z,95319.56
2022-10-22T06:29:08.852Z,95313.97
2022-10-22T06:31:38.348Z,95325.19
2022-10-22T06:34:07.685Z,95317.63
2022-10-22T06:36:34.951Z,95319.91
2022-10-22T06:39:01.983Z,95330.03
2022-10-22T06:41:28.879Z,95325.94
2022-10-22T06:43:57.583Z,95333.44
2022-10-22T06:46:25.226Z,95326.22
2022-10-22T06:48:54.137Z,95335.69
2022-10-22T06:51:21.223Z,95332.59
2022-10-22T06:53:48.450Z,95347.69
2022-10-22T06:56:18.202Z,95337.00
2022-10-22T06:58:50.843Z,95342.31
2022-10-22T07:01:20.385Z,95353.16
2022-10-22T07:03:47.448Z,95348.19
2022-10-22T07:06:15.204Z,95357.91
2022-10-22T07:08:42.601Z,95359.53
2022-10-22T07:11:18.709Z,95355.75
2022-10-22T07:13:46.159Z,95365.91
2022-10-22T07:16:13.637Z,95367.19
2022-10-22T07:18:41.534Z,95365.69
2022-10-22T07:21:09.382Z,95367.06
2022-10-22T07:23:35.899Z,95370.69
2022-10-22T07:26:03.082Z,95377.50
2022-10-22T07:28:30.974Z,95388.06
2022-10-22T07:30:57.954Z,95380.66
2022-10-22T07:33:24.523Z,95378.34
2022-10-22T07:35:51.236Z,95390.09
2022-10-22T07:38:17.829Z,95379.56
2022-10-22T07:40:44.403Z,95384.06
2022-10-22T07:43:11.121Z,95386.06
2022-10-22T07:45:37.702Z,95381.88
2022-10-22T07:48:04.533Z,95379.47
2022-10-22T07:50:31.324Z,95377.81
2022-10-22T07:52:58.388Z,95387.78
2022-10-22T07:55:25.703Z,95385.34
2022-10-22T07:57:52.497Z,95386.78
2022-10-22T08:00:23.035Z,95390.78
2022-10-22T08:02:51.805Z,95377.00
2022-10-22T08:05:18.534Z,95377.47
2022-10-22T08:07:45.222Z,95382.91
2022-10-22T08:10:12.964Z,95385.78
2022-10-22T08:12:40.704Z,95388.34
2022-10-22T08:15:08.436Z,95394.56
2022-10-22T08:17:35.057Z,95391.41
2022-10-22T08:20:01.727Z,95386.25
2022-10-22T08:22:28.262Z,95391.63
2022-10-22T08:24:54.993Z,95383.09
2022-10-22T08:27:21.654Z,95374.78
2022-10-22T08:29:48.229Z,95385.22
2022-10-22T08:32:14.793Z,95380.66
2022-10-22T08:34:41.480Z,95390.41
2022-10-22T08:37:08.623Z,95387.88
2022-10-22T08:39:35.597Z,95392.19
2022-10-22T08:42:11.151Z,95389.19
2022-10-22T08:45:15.382Z,95394.88
2022-10-22T08:48:00.235Z,95392.72
2022-10-22T08:50:33.754Z,95391.66
2022-10-22T08:53:05.747Z,95390.41
2022-10-22T08:55:37.247Z,95395.50
2022-10-22T08:58:10.212Z,95393.25
2022-10-22T09:00:46.144Z,95393.56
2022-10-22T09:03:12.756Z,95390.69
2022-10-22T09:06:08.766Z,95395.59
2022-10-22T09:08:36.766Z,95388.91
2022-10-22T09:11:21.729Z,95390.41
2022-10-22T09:13:49.362Z,95399.13
2022-10-22T09:16:18.221Z,95385.53
2022-10-22T09:19:09.742Z,95391.44
2022-10-22T09:22:01.560Z,95393.63
2022-10-22T09:24:38.894Z,95388.13
2022-10-22T09:27:32.061Z,95386.09
2022-10-22T09:29:58.629Z,95388.94
2022-10-22T09:32:25.659Z,95391.75
2022-10-22T09:34:57.011Z,95392.75
2022-10-22T09:37:28.163Z,95397.34
2022-10-22T09:39:56.686Z,95395.53
2022-10-22T09:42:23.379Z,95391.28
2022-10-22T09:44:58.629Z,95400.59
2022-10-22T09:48:00.622Z,95396.09
2022-10-22T09:50:39.643Z,95401.44
2022-10-22T09:53:13.047Z,95404.69
2022-10-22T09:55:41.992Z,95407.63
2022-10-22T09:58:12.366Z,95389.63
2022-10-22T10:00:41.334Z,95403.66
2022-10-22T10:03:17.356Z,95400.31
2022-10-22T10:05:48.320Z,95409.72
2022-10-22T10:08:17.587Z,95414.94
2022-10-22T10:10:44.263Z,95408.53
2022-10-22T10:13:17.738Z,95411.97
2022-10-22T10:16:15.766Z,95411.13
2022-10-22T10:19:04.174Z,95412.97
2022-10-22T10:21:57.835Z,95424.06
2022-10-22T10:24:44.552Z,95426.06
2022-10-22T10:27:23.777Z,95426.59
2022-10-22T10:30:02.575Z,95427.31
2022-10-22T10:32:54.222Z,95425.66
2022-10-22T10:35:35.090Z,95422.41
2022-10-22T10:38:16.948Z,95426.25
2022-10-22T10:41:25.462Z,95430.06
2022-10-22T10:44:32.467Z,95419.84
2022-10-22T10:47:43.562Z,95423.50
2022-10-22T10:50:40.649Z,95420.63
2022-10-22T10:53:21.733Z,95420.81
2022-10-22T10:55:54.561Z,95416.31
2022-10-22T10:58:42.868Z,95419.22
2022-10-22T11:01:24.657Z,95424.72
2022-10-22T11:04:17.421Z,95423.31
2022-10-22T11:06:45.641Z,95417.16
2022-10-22T11:09:27.343Z,95421.16
2022-10-22T11:12:04.071Z,95405.06
2022-10-22T11:14:39.091Z,95404.72
2022-10-22T11:17:14.259Z,95399.97
2022-10-22T11:20:08.408Z,95397.78
2022-10-22T11:22:50.415Z,95395.09
2022-10-22T11:25:45.302Z,95396.41
2022-10-22T11:28:19.821Z,95389.97
2022-10-22T11:30:52.086Z,95384.72
2022-10-22T11:33:24.735Z,95381.41
2022-10-22T11:35:53.112Z,95387.41
2022-10-22T11:38:24.096Z,95386.53
2022-10-22T11:41:01.249Z,95386.03
2022-10-22T11:43:38.059Z,95379.00
2022-10-22T11:46:16.874Z,95379.19
2022-10-22T11:48:43.826Z,95385.09
2022-10-22T11:51:33.927Z,95377.75
2022-10-22T11:54:21.866Z,95382.97
2022-10-22T11:56:53.191Z,95380.50
2022-10-22T11:59:39.722Z,95380.81
2022-10-22T12:02:39.840Z,95380.22
2022-10-22T12:05:18.607Z,95375.31
2022-10-22T12:08:02.817Z,95364.13
2022-10-22T12:10:57.449Z,95354.84
2022-10-22T12:13:27.934Z,95363.81
2022-10-22T12:16:02.435Z,95359.88
2022-10-22T12:18:41.266Z,95358.38
2022-10-22T12:21:13.491Z,95366.72
2022-10-22T12:23:40.531Z,95361.50
2022-10-22T12:26:23.213Z,95354.31
2022-10-22T12:28:49.782Z,95354.13
2022-10-22T12:31:17.102Z,95355.41
2022-10-22T12:33:44.023Z,95356.16
2022-10-22T12:36:18.155Z,95354.13
2022-10-22T12:38:47.676Z,95350.19
2022-10-22T12:41:14.283Z,95346.34
2022-10-22T12:43:40.742Z,95341.09
2022-10-22T12:46:13.939Z,95337.88
2022-10-22T12:48:44.051Z,95343.34
2022-10-22T12:51:18.901Z,95342.72
2022-10-22T12:53:53.329Z,95338.09
2022-10-22T12:56:29.003Z,95338.88
2022-10-22T12:59:02.633Z,95340.56
2022-10-22T13:01:36.225Z,95329.78
2022-10-22T13:04:17.075Z,95324.84
2022-10-22T13:06:45.740Z,95325.25
2022-10-22T13:09:27.591Z,95322.16
2022-10-22T13:12:01.890Z,95327.06
2022-10-22T13:14:34.097Z,95318.78
2022-10-22T13:17:15.714Z,95323.19
2022-10-22T13:19:42.391Z,95329.56
2022-10-22T13:22:35.559Z,95318.16
2022-10-22T13:25:05.149Z,95314.44
2022-10-22T13:27:31.889Z,95314.69
2022-10-22T13:30:10.401Z,95299.44
2022-10-22T13:32:37.051Z,95303.03
2022-10-22T13:35:04.299Z,95299.59
2022-10-22T13:37:34.255Z,95308.56
2022-10-22T13:40:00.763Z,95304.16
2022-10-22T13:42:27.245Z,95308.84
2022-10-22T13:44:53.795Z,95312.03
2022-10-22T13:47:29.243Z,95301.81
2022-10-22T13:49:58.914Z,95316.16
2022-10-22T13:52:41.325Z,95308.81
2022-10-22T13:55:20.008Z,95313.88
2022-10-22T13:57:47.447Z,95311.19
2022-10-22T14:00:20.345Z,95308.88
2022-10-22T14:02:50.434Z,95307.31
2022-10-22T14:05:18.028Z,95303.38
2022-10-22T14:07:45.562Z,95301.03
2022-10-22T14:10:20.931Z,95294.06
2022-10-22T14:12:52.424Z,95297.69
2022-10-22T14:15:24.123Z,95300.66
2022-10-22T14:17:56.202Z,95289.22
2022-10-22T14:20:31.106Z,95297.38
2022-10-22T14:23:05.187Z,95291.91
2022-10-22T14:25:31.785Z,95302.34
2022-10-22T14:27:58.278Z,95308.25
2022-10-22T14:30:26.447Z,95302.78
2022-10-22T14:32:53.079Z,95305.78
2022-10-22T14:35:22.659Z,95302.19
2022-10-22T14:37:49.865Z,95295.81
2022-10-22T14:40:20.263Z,95288.38
2022-10-22T14:42:48.980Z,95286.88
2022-10-22T14:45:24.467Z,95282.25
2022-10-22T14:47:52.396Z,95290.97
2022-10-22T14:50:19.145Z,95285.44
2022-10-22T14:52:45.939Z,95283.56
2022-10-22T14:55:14.457Z,95282.00
2022-10-22T14:57:41.953Z,95277.94
2022-10-22T15:00:16.888Z,95269.41
2022-10-22T15:02:44.051Z,95266.88
2022-10-22T15:05:11.399Z,95265.81
2022-10-22T15:07:38.671Z,95271.41
2022-10-22T15:10:06.850Z,95273.44
2022-10-22T15:12:33.411Z,95280.59
2022-10-22T15:14:59.984Z,95287.41
2022-10-22T15:17:26.452Z,95282.38
2022-10-22T15:19:53.277Z,95281.13
2022-10-22T15:22:20.614Z,95285.72
2022-10-22T15:24:48.532Z,95285.03
2022-10-22T15:27:15.498Z,95286.81
2022-10-22T15:29:42.752Z,95275.13
2022-10-22T15:32:13.032Z,95290.69
2022-10-22T15:34:40.363Z,95280.28
2022-10-22T15:37:12.338Z,95285.97
2022-10-22T15:39:42.638Z,95281.53
2022-10-22T15:42:09.986Z,95289.25
2022-10-22T15:44:37.230Z,95290.44
2022-10-22T15:47:06.331Z,95293.03
2022-10-22T15:49:35.535Z,95296.13
2022-10-22T15:52:02.419Z,95289.31
2022-10-22T15:54:30.347Z,95298.19
2022-10-22T15:56:58.391Z,95294.06
2022-10-22T15:59:25.525Z,95296.91
2022-10-22T16:01:52.169Z,95296.06
2022-10-22T16:04:18.727Z,95297.31
2022-10-22T16:06:52.660Z,95298.47
2022-10-22T16:09:25.122Z,95305.00
2022-10-22T16:14:24.702Z,95300.59
2022-10-22T16:16:53.943Z,95309.16
2022-10-22T16:19:22.657Z,95307.13
2022-10-22T16:21:54.481Z,95305.19
2022-10-22T16:24:21.854Z,95305.41
2022-10-22T16:26:49.155Z,95312.44
2022-10-22T16:29:15.964Z,95308.91
2022-10-22T16:31:43.959Z,95306.53
2022-10-22T16:34:10.765Z,95310.03
2022-10-22T16:36:38.473Z,95313.22
2022-10-22T16:39:06.169Z,95308.00
2022-10-22T16:41:36.381Z,95309.66
2022-10-22T16:44:08.021Z,95311.38
2022-10-22T16:46:38.352Z,95321.25
2022-10-22T16:49:05.861Z,95325.16
2022-10-22T16:51:32.430Z,95326.72
2022-10-22T16:53:59.024Z,95316.66
2022-10-22T16:56:26.193Z,95325.00
2022-10-22T16:58:55.796Z,95318.69
2022-10-22T17:01:26.392Z,95320.25
2022-10-22T17:03:54.772Z,95326.34
2022-10-22T17:06:22.694Z,95330.56
2022-10-22T17:08:49.380Z,95337.41
2022-10-22T17:11:18.547Z,95337.91
2022-10-22T17:13:48.914Z,95342.47
2022-10-22T17:16:17.792Z,95336.47
2022-10-22T17:21:19.235Z,95347.53
2022-10-22T17:23:46.382Z,95338.91
2022-10-22T17:26:19.727Z,95341.94
2022-10-22T17:28:46.934Z,95343.47
2022-10-22T17:31:23.753Z,95345.75
2022-10-22T17:33:52.613Z,95341.63
2022-10-22T17:36:20.160Z,95334.47
2022-10-22T17:38:52.782Z,95336.75
2022-10-22T17:41:22.047Z,95337.53
2022-10-22T17:43:48.976Z,95335.25
2022-10-22T17:46:25.956Z,95348.13
2022-10-22T17:49:15.546Z,95347.44
2022-10-22T17:51:42.122Z,95345.97
2022-10-22T17:54:10.032Z,95345.59
2022-10-22T17:56:37.736Z,95354.28
2022-10-22T17:59:04.589Z,95352.81
2022-10-22T18:01:34.232Z,95346.00
2022-10-22T18:04:04.068Z,95343.75
2022-10-22T18:06:31.509Z,95350.50
2022-10-22T18:08:58.124Z,95347.88
2022-10-22T18:11:27.419Z,95350.50
2022-10-22T18:13:56.824Z,95352.06
2022-10-22T18:16:23.685Z,95352.06
2022-10-22T18:18:55.655Z,95347.53
2022-10-22T18:21:24.528Z,95344.50
2022-10-22T18:23:51.301Z,95343.00
2022-10-22T18:26:20.305Z,95349.03
2022-10-22T18:28:49.477Z,95354.72
2022-10-22T18:31:22.417Z,95358.88
2022-10-22T18:33:49.132Z,95351.69
2022-10-22T18:36:19.261Z,95346.81
2022-10-22T18:38:56.747Z,95349.06
2022-10-22T18:41:24.232Z,95339.25
2022-10-22T18:43:58.679Z,95352.84
2022-10-22T18:46:26.471Z,95347.53
2022-10-22T18:48:54.780Z,95360.38
2022-10-22T18:51:21.669Z,95355.47
2022-10-22T18:54:04.553Z,95360.38
2022-10-22T18:56:40.499Z,95359.59
2022-10-22T18:59:07.687Z,95363.38
2022-10-22T19:01:35.546Z,95362.63
2022-10-22T19:04:02.152Z,95356.59
2022-10-22T19:06:34.425Z,95352.09
2022-10-22T19:09:03.907Z,95350.59
2022-10-22T19:11:31.509Z,95352.88
2022-10-22T19:13:58.403Z,95342.31
2022-10-22T19:16:25.953Z,95353.63
2022-10-22T19:18:58.605Z,95340.06
2022-10-22T19:21:25.183Z,95347.63
2022-10-22T19:23:51.846Z,95344.59
2022-10-22T19:26:19.097Z,95344.59
2022-10-22T19:28:45.694Z,95338.19
2022-10-22T19:31:16.848Z,95330.63
2022-10-22T19:33:43.663Z,95330.25
2022-10-22T19:36:15.267Z,95327.25
2022-10-22T19:38:44.502Z,95332.53
2022-10-22T19:41:13.163Z,95321.97
2022-10-22T19:43:40.508Z,95326.50
2022-10-22T19:46:07.745Z,95315.94
2022-10-22T19:48:35.237Z,95331.03
2022-10-22T19:51:04.366Z,95337.06
2022-10-22T19:53:32.478Z,95337.06
2022-10-22T19:56:00.210Z,95338.94
2022-10-22T19:58:27.809Z,95344.59
2022-10-22T20:00:54.747Z,95349.88
2022-10-22T20:03:21.679Z,95343.88
2022-10-22T20:05:50.662Z,95341.59
2022-10-22T20:08:17.487Z,95333.28
2022-10-22T20:10:44.039Z,95333.69
2022-10-22T20:13:10.539Z,95337.06
2022-10-22T20:15:37.042Z,95339.31
2022-10-22T20:18:03.701Z,95341.59
2022-10-22T20:20:30.461Z,95334.09
2022-10-22T20:22:57.418Z,95340.88
2022-10-22T20:25:23.918Z,95331.09
2022-10-22T20:27:50.492Z,95345.44
2022-10-22T20:30:19.696Z,95351.84
2022-10-22T20:32:46.249Z,95351.13
2022-10-22T20:35:15.050Z,95354.16
2022-10-22T20:37:41.629Z,95354.53
2022-10-22T20:40:08.655Z,95359.47
2022-10-22T20:42:35.175Z,95358.34
2022-10-22T20:45:01.950Z,95354.59
2022-10-22T20:47:39.173Z,95358.38
2022-10-22T20:50:15.028Z,95357.63
2022-10-22T20:52:41.543Z,95359.16
2022-10-22T20:55:08.165Z,95348.59
2022-10-22T20:57:35.498Z,95356.88
2022-10-22T21:00:02.101Z,95355.38
2022-10-22T21:02:28.682Z,95354.25
2022-10-22T21:04:55.203Z,95362.53
2022-10-22T21:07:21.697Z,95360.66
2022-10-22T21:09:48.203Z,95365.19
2022-10-22T21:12:15.177Z,95362.94
2022-10-22T21:14:41.737Z,95354.63
2022-10-22T21:17:08.274Z,95355.38
2022-10-22T21:19:35.300Z,95365.94
2022-10-22T21:22:01.839Z,95363.69
2022-10-22T21:24:28.375Z,95356.88
2022-10-22T21:26:55.175Z,95353.09
2022-10-22T21:29:21.926Z,95346.72
2022-10-22T21:31:48.423Z,95358.41
2022-10-22T21:34:15.047Z,95362.16
2022-10-22T21:36:41.655Z,95361.44
2022-10-22T21:39:08.259Z,95353.13
2022-10-22T21:41:37.327Z,95353.88
2022-10-22T21:44:04.015Z,95362.19
2022-10-22T21:46:30.621Z,95365.19
2022-10-22T21:49:02.420Z,95364.06
2022-10-22T21:51:31.661Z,95358.03
2022-10-22T21:53:58.543Z,95358.78
2022-10-22T21:56:28.551Z,95350.50
2022-10-22T21:58:55.869Z,95352.00
2022-10-22T22:01:22.947Z,95353.50
2022-10-22T22:03:50.733Z,95354.66
2022-10-22T22:06:21.376Z,95355.00
2022-10-22T22:08:49.492Z,95354.28
2022-10-22T22:11:18.802Z,95348.63
2022-10-22T22:13:45.307Z,95356.91
2022-10-22T22:16:14.909Z,95353.13
2022-10-22T22:18:42.095Z,95362.94
2022-10-22T22:21:12.217Z,95362.19
2022-10-22T22:23:41.058Z,95355.38
2022-10-22T22:26:08.336Z,95353.88
2022-10-22T22:28:36.044Z,95350.81
2022-10-22T22:31:11.686Z,95343.31
2022-10-22T22:33:38.166Z,95353.47
2022-10-22T22:36:05.064Z,95356.09
2022-10-22T22:38:31.803Z,95355.34
2022-10-22T22:41:01.824Z,95347.81
2022-10-22T22:43:28.295Z,95355.38
2022-10-22T22:46:07.014Z,95353.47
2022-10-22T22:48:34.364Z,95356.84
2022-10-22T22:51:03.171Z,95350.84
2022-10-22T22:53:29.886Z,95358.34
2022-10-22T22:56:10.370Z,95352.34
2022-10-22T22:58:38.361Z,95364.41
2022-10-22T23:01:27.505Z,95358.41
2022-10-22T23:04:16.607Z,95348.59
2022-10-22T23:06:43.332Z,95357.66
2022-10-22T23:09:13.796Z,95349.38
2022-10-22T23:11:41.960Z,95359.91
2022-10-22T23:14:12.135Z,95355.38
2022-10-22T23:16:42.557Z,95352.75
2022-10-22T23:19:09.995Z,95354.63
2022-10-22T23:21:39.874Z,95349.38
2022-10-22T23:24:09.776Z,95352.00
2022-10-22T23:26:39.903Z,95342.53
2022-10-22T23:29:20.084Z,95335.00
2022-10-22T23:31:47.585Z,95343.31
2022-10-22T23:34:16.989Z,95335.78
2022-10-22T23:36:44.390Z,95329.00
2022-10-22T23:39:13.371Z,95326.03
2022-10-22T23:41:40.307Z,95327.47
2022-10-22T23:44:08.288Z,95325.22
2022-10-22T23:46:35.458Z,95322.94
2022-10-22T23:49:02.122Z,95330.47
2022-10-22T23:51:28.982Z,95329.00
2022-10-22T23:53:58.532Z,95321.06
2022-10-22T23:56:26.205Z,95333.13
2022-10-22T23:58:53.580Z,95337.25
